DLH8LX LROP-EDDF
Flight info
| Callsign | DLH8LX |
|---|---|
| Flight time | N/A |
| Altitude | 36000 |
| Route | SOKRU DCT OXDOC DCT DEGET DCT ARSIN DCT SUBEN DCT AKINI T161 DEBHI DEBHI1B |
| Aircraft | A319/M-SDE3FGHIRWY/LB1 |
Departure
| Time | 2026-05-07 17:44 |
|---|---|
| Airport | Bucharest Henri Coandă International Airport (LROP) |
Arrival
| Time | N/A |
|---|---|
| Airport | Frankfurt Main Airport (EDDF) |
| Time | Latitude | Longitude | Altitude | Speed | Heading |
|---|---|---|---|---|---|
| 2026-05-07 17:17 | 44.57115 | 26.08062 | 317 ft | 0 kts | 174° |
| 2026-05-07 17:34 | 44.57116 | 26.08062 | 317 ft | 1 kts | 174° |
| 2026-05-07 17:34 | 44.57140 | 26.08058 | 315 ft | 4 kts | 173° |
| 2026-05-07 17:35 | 44.57166 | 26.08053 | 315 ft | 4 kts | 160° |
| 2026-05-07 17:35 | 44.57185 | 26.08033 | 317 ft | 4 kts | 105° |
| 2026-05-07 17:35 | 44.57187 | 26.08010 | 317 ft | 1 kts | 84° |
| 2026-05-07 17:35 | 44.57186 | 26.08006 | 317 ft | 0 kts | 84° |
| 2026-05-07 17:38 | 44.57187 | 26.08010 | 317 ft | 2 kts | 84° |
| 2026-05-07 17:38 | 44.57192 | 26.08076 | 317 ft | 10 kts | 83° |
| 2026-05-07 17:38 | 44.57200 | 26.08181 | 318 ft | 11 kts | 84° |
| 2026-05-07 17:39 | 44.57208 | 26.08273 | 317 ft | 2 kts | 78° |
| 2026-05-07 17:39 | 44.57211 | 26.08291 | 317 ft | 2 kts | 77° |
| 2026-05-07 17:39 | 44.57213 | 26.08301 | 318 ft | 0 kts | 76° |
| 2026-05-07 17:40 | 44.57213 | 26.08303 | 318 ft | 1 kts | 76° |
| 2026-05-07 17:40 | 44.57219 | 26.08337 | 318 ft | 7 kts | 77° |
| 2026-05-07 17:41 | 44.57229 | 26.08428 | 318 ft | 12 kts | 83° |
| 2026-05-07 17:41 | 44.57281 | 26.08496 | 319 ft | 11 kts | 3° |
| 2026-05-07 17:41 | 44.57357 | 26.08485 | 318 ft | 11 kts | 354° |
| 2026-05-07 17:41 | 44.57432 | 26.08474 | 319 ft | 11 kts | 354° |
| 2026-05-07 17:42 | 44.57504 | 26.08464 | 320 ft | 10 kts | 353° |
| 2026-05-07 17:42 | 44.57520 | 26.08462 | 321 ft | 0 kts | 353° |
| 2026-05-07 17:42 | 44.57521 | 26.08461 | 321 ft | 1 kts | 353° |
| 2026-05-07 17:42 | 44.57556 | 26.08456 | 321 ft | 10 kts | 353° |
| 2026-05-07 17:43 | 44.57642 | 26.08454 | 323 ft | 14 kts | 24° |
| 2026-05-07 17:43 | 44.57677 | 26.08612 | 323 ft | 25 kts | 84° |
| 2026-05-07 17:43 | 44.57721 | 26.09195 | 317 ft | 95 kts | 83° |
| 2026-05-07 17:43 | 44.57816 | 26.10417 | 318 ft | 151 kts | 84° |
| 2026-05-07 17:44 | 44.57939 | 26.12051 | 545 ft | 174 kts | 84° |
| 2026-05-07 17:44 | 44.58057 | 26.13745 | 1148 ft | 175 kts | 86° |
| 2026-05-07 17:44 | 44.58176 | 26.15423 | 1779 ft | 175 kts | 87° |
| 2026-05-07 17:44 | 44.58389 | 26.17110 | 2361 ft | 181 kts | 73° |
| 2026-05-07 17:45 | 44.59139 | 26.18638 | 2645 ft | 205 kts | 39° |
| 2026-05-07 17:45 | 44.60512 | 26.19408 | 2953 ft | 225 kts | 5° |
| 2026-05-07 17:45 | 44.62128 | 26.19034 | 3161 ft | 252 kts | 333° |
| 2026-05-07 17:45 | 44.63520 | 26.17433 | 3623 ft | 268 kts | 303° |
| 2026-05-07 17:46 | 44.64359 | 26.15117 | 4569 ft | 265 kts | 290° |
| 2026-05-07 17:46 | 44.64963 | 26.12674 | 5542 ft | 264 kts | 284° |
| 2026-05-07 17:46 | 44.65395 | 26.10165 | 6478 ft | 265 kts | 281° |
| 2026-05-07 17:46 | 44.65915 | 26.07656 | 7270 ft | 271 kts | 290° |
| 2026-05-07 17:47 | 44.66799 | 26.05288 | 8091 ft | 277 kts | 299° |
| 2026-05-07 17:47 | 44.67853 | 26.03005 | 8947 ft | 280 kts | 301° |
| 2026-05-07 17:47 | 44.68949 | 26.00720 | 9774 ft | 284 kts | 301° |
| 2026-05-07 17:47 | 44.70048 | 25.98379 | 10382 ft | 295 kts | 300° |
| 2026-05-07 17:48 | 44.71185 | 25.95847 | 10629 ft | 318 kts | 299° |
| 2026-05-07 17:48 | 44.72358 | 25.93136 | 11143 ft | 328 kts | 299° |
| 2026-05-07 17:48 | 44.73535 | 25.90353 | 11820 ft | 334 kts | 298° |
| 2026-05-07 17:48 | 44.74721 | 25.87514 | 12525 ft | 339 kts | 298° |
| 2026-05-07 17:49 | 44.75904 | 25.84668 | 13237 ft | 343 kts | 298° |
| 2026-05-07 17:49 | 44.77113 | 25.81754 | 13940 ft | 347 kts | 298° |
| 2026-05-07 17:49 | 44.78333 | 25.78809 | 14562 ft | 350 kts | 298° |
| 2026-05-07 17:49 | 44.79563 | 25.75836 | 15208 ft | 353 kts | 298° |
| 2026-05-07 17:50 | 44.80802 | 25.72838 | 15849 ft | 355 kts | 298° |
| 2026-05-07 17:50 | 44.82052 | 25.69817 | 16492 ft | 358 kts | 298° |
| 2026-05-07 17:50 | 44.83311 | 25.66777 | 17121 ft | 361 kts | 298° |
| 2026-05-07 17:50 | 44.84581 | 25.63710 | 17773 ft | 363 kts | 298° |
| 2026-05-07 17:51 | 44.85858 | 25.60618 | 18398 ft | 366 kts | 298° |
| 2026-05-07 17:51 | 44.87140 | 25.57508 | 18929 ft | 369 kts | 298° |
| 2026-05-07 17:51 | 44.88433 | 25.54370 | 19468 ft | 372 kts | 298° |
| 2026-05-07 17:51 | 44.89738 | 25.51199 | 19989 ft | 375 kts | 298° |
| 2026-05-07 17:52 | 44.91051 | 25.48002 | 20525 ft | 378 kts | 298° |
| 2026-05-07 17:52 | 44.92372 | 25.44776 | 21046 ft | 381 kts | 298° |
| 2026-05-07 17:52 | 44.93700 | 25.41527 | 21570 ft | 384 kts | 298° |
| 2026-05-07 17:52 | 44.95041 | 25.38247 | 22076 ft | 387 kts | 298° |
| 2026-05-07 17:53 | 44.96393 | 25.34932 | 22596 ft | 391 kts | 298° |
| 2026-05-07 17:53 | 44.97756 | 25.31595 | 23097 ft | 394 kts | 298° |
| 2026-05-07 17:53 | 44.99133 | 25.28227 | 23592 ft | 397 kts | 298° |
| 2026-05-07 17:53 | 45.00520 | 25.24832 | 24003 ft | 400 kts | 298° |
| 2026-05-07 17:54 | 45.01918 | 25.21401 | 24371 ft | 404 kts | 298° |
| 2026-05-07 17:54 | 45.03324 | 25.17941 | 24780 ft | 407 kts | 298° |
| 2026-05-07 17:54 | 45.04726 | 25.14463 | 25189 ft | 409 kts | 298° |
| 2026-05-07 17:54 | 45.06129 | 25.10959 | 25605 ft | 410 kts | 298° |
| 2026-05-07 17:55 | 45.07534 | 25.07427 | 26020 ft | 412 kts | 297° |
| 2026-05-07 17:55 | 45.08937 | 25.03893 | 26414 ft | 414 kts | 297° |
| 2026-05-07 17:55 | 45.10353 | 25.00334 | 26814 ft | 416 kts | 297° |
| 2026-05-07 17:55 | 45.11772 | 24.96762 | 27198 ft | 417 kts | 297° |
| 2026-05-07 17:56 | 45.13181 | 24.93217 | 27589 ft | 420 kts | 297° |
| 2026-05-07 17:56 | 45.14617 | 24.89603 | 27940 ft | 422 kts | 297° |
| 2026-05-07 17:56 | 45.16056 | 24.85969 | 28311 ft | 424 kts | 297° |
| 2026-05-07 17:56 | 45.17521 | 24.82261 | 28685 ft | 426 kts | 297° |
| 2026-05-07 17:57 | 45.18957 | 24.78623 | 29055 ft | 428 kts | 297° |
| 2026-05-07 17:57 | 45.19941 | 24.76130 | 29309 ft | 429 kts | 297° |
| 2026-05-07 17:57 | 45.21879 | 24.71220 | 29782 ft | 432 kts | 297° |
| 2026-05-07 17:57 | 45.23346 | 24.67491 | 30123 ft | 434 kts | 296° |
| 2026-05-07 17:58 | 45.24818 | 24.63742 | 30429 ft | 436 kts | 296° |
| 2026-05-07 17:58 | 45.25793 | 24.61257 | 30606 ft | 437 kts | 296° |
| 2026-05-07 17:58 | 45.27277 | 24.57474 | 30871 ft | 439 kts | 296° |
| 2026-05-07 17:58 | 45.28766 | 24.53672 | 31159 ft | 441 kts | 296° |
| 2026-05-07 17:59 | 45.30258 | 24.49854 | 31444 ft | 442 kts | 296° |
| 2026-05-07 17:59 | 45.31749 | 24.46040 | 31819 ft | 441 kts | 296° |
| 2026-05-07 17:59 | 45.33241 | 24.42227 | 32252 ft | 439 kts | 295° |
| 2026-05-07 17:59 | 45.34720 | 24.38439 | 32695 ft | 436 kts | 295° |
| 2026-05-07 18:00 | 45.36185 | 24.34672 | 33075 ft | 434 kts | 295° |
| 2026-05-07 18:00 | 45.37639 | 24.30925 | 33503 ft | 432 kts | 294° |
| 2026-05-07 18:00 | 45.39086 | 24.27192 | 33986 ft | 429 kts | 294° |
| 2026-05-07 18:00 | 45.40521 | 24.23491 | 34428 ft | 425 kts | 294° |
| 2026-05-07 18:01 | 45.41945 | 24.19811 | 34807 ft | 424 kts | 294° |
| 2026-05-07 18:01 | 45.43364 | 24.16138 | 35138 ft | 423 kts | 294° |
| 2026-05-07 18:01 | 45.44777 | 24.12477 | 35451 ft | 422 kts | 294° |
| 2026-05-07 18:01 | 45.46168 | 24.08865 | 35730 ft | 421 kts | 295° |
| 2026-05-07 18:02 | 45.48982 | 24.01551 | 36046 ft | 419 kts | 295° |
| 2026-05-07 18:02 | 45.50378 | 23.97916 | 36063 ft | 416 kts | 294° |
| 2026-05-07 18:03 | 45.53144 | 23.90696 | 36057 ft | 414 kts | 294° |
| 2026-05-07 18:03 | 45.55895 | 23.83481 | 36060 ft | 414 kts | 294° |
| 2026-05-07 18:04 | 45.58645 | 23.76258 | 36069 ft | 414 kts | 294° |
| 2026-05-07 18:04 | 45.61400 | 23.69024 | 36064 ft | 414 kts | 294° |
| 2026-05-07 18:05 | 45.64144 | 23.61794 | 36045 ft | 414 kts | 294° |
| 2026-05-07 18:05 | 45.66878 | 23.54558 | 36044 ft | 414 kts | 294° |
| 2026-05-07 18:06 | 45.69593 | 23.47362 | 36045 ft | 414 kts | 294° |
| 2026-05-07 18:06 | 45.72321 | 23.40107 | 36040 ft | 414 kts | 294° |
| 2026-05-07 18:07 | 45.75044 | 23.32823 | 36045 ft | 415 kts | 294° |
| 2026-05-07 18:07 | 45.77766 | 23.25539 | 36042 ft | 415 kts | 294° |
| 2026-05-07 18:08 | 45.80497 | 23.18237 | 36034 ft | 415 kts | 294° |
| 2026-05-07 18:08 | 45.83223 | 23.10921 | 36037 ft | 415 kts | 294° |
| 2026-05-07 18:09 | 45.85935 | 23.03595 | 36057 ft | 416 kts | 293° |
| 2026-05-07 18:09 | 45.88624 | 22.96315 | 36042 ft | 416 kts | 293° |
| 2026-05-07 18:10 | 45.91338 | 22.88963 | 36037 ft | 416 kts | 293° |
| 2026-05-07 18:10 | 45.94048 | 22.81605 | 36035 ft | 417 kts | 293° |
| 2026-05-07 18:11 | 45.96760 | 22.74237 | 36036 ft | 417 kts | 293° |
| 2026-05-07 18:11 | 45.99465 | 22.66855 | 36046 ft | 417 kts | 293° |
| 2026-05-07 18:12 | 46.02164 | 22.59465 | 36040 ft | 418 kts | 293° |
| 2026-05-07 18:12 | 46.04854 | 22.52058 | 36037 ft | 418 kts | 293° |
| 2026-05-07 18:13 | 46.07545 | 22.44643 | 36037 ft | 418 kts | 293° |
| 2026-05-07 18:13 | 46.10241 | 22.37213 | 36054 ft | 418 kts | 293° |
| 2026-05-07 18:14 | 46.12924 | 22.29773 | 36049 ft | 418 kts | 293° |
| 2026-05-07 18:14 | 46.15589 | 22.22377 | 36048 ft | 418 kts | 293° |
| 2026-05-07 18:15 | 46.18265 | 22.14931 | 36040 ft | 418 kts | 293° |
| 2026-05-07 18:15 | 46.20929 | 22.07476 | 36039 ft | 418 kts | 293° |
| 2026-05-07 18:16 | 46.23589 | 22.00012 | 36054 ft | 418 kts | 293° |
| 2026-05-07 18:16 | 46.26247 | 21.92551 | 36048 ft | 418 kts | 293° |
| 2026-05-07 18:17 | 46.28905 | 21.85083 | 36044 ft | 417 kts | 293° |
| 2026-05-07 18:17 | 46.31549 | 21.77609 | 36037 ft | 417 kts | 293° |
| 2026-05-07 18:18 | 46.34175 | 21.70173 | 36061 ft | 417 kts | 292° |
| 2026-05-07 18:18 | 46.36803 | 21.62693 | 36039 ft | 417 kts | 292° |
| 2026-05-07 18:19 | 46.39435 | 21.55202 | 36041 ft | 417 kts | 292° |
| 2026-05-07 18:19 | 46.42064 | 21.47711 | 36028 ft | 417 kts | 292° |
| 2026-05-07 18:20 | 46.44683 | 21.40208 | 36026 ft | 417 kts | 292° |
| 2026-05-07 18:20 | 46.47293 | 21.32702 | 36043 ft | 417 kts | 292° |
| 2026-05-07 18:21 | 46.49783 | 21.25125 | 36038 ft | 413 kts | 286° |
| 2026-05-07 18:21 | 46.51822 | 21.17318 | 36031 ft | 413 kts | 287° |
| 2026-05-07 18:22 | 46.53867 | 21.09513 | 36025 ft | 413 kts | 287° |
| 2026-05-07 18:22 | 46.55898 | 21.01706 | 36043 ft | 413 kts | 286° |
| 2026-05-07 18:23 | 46.57926 | 20.93885 | 36036 ft | 413 kts | 286° |
| 2026-05-07 18:23 | 46.59949 | 20.86071 | 36024 ft | 413 kts | 286° |
| 2026-05-07 18:24 | 46.61951 | 20.78314 | 36019 ft | 413 kts | 286° |
| 2026-05-07 18:24 | 46.63955 | 20.70495 | 36015 ft | 412 kts | 286° |
| 2026-05-07 18:25 | 46.65954 | 20.62669 | 36036 ft | 412 kts | 286° |
| 2026-05-07 18:25 | 46.67952 | 20.54849 | 36031 ft | 412 kts | 286° |
| 2026-05-07 18:26 | 46.69943 | 20.47030 | 36028 ft | 411 kts | 285° |
| 2026-05-07 18:26 | 46.71924 | 20.39203 | 36023 ft | 411 kts | 285° |
| 2026-05-07 18:27 | 46.73888 | 20.31384 | 36019 ft | 411 kts | 285° |
| 2026-05-07 18:27 | 46.75844 | 20.23612 | 36015 ft | 411 kts | 285° |
| 2026-05-07 18:28 | 46.77808 | 20.15797 | 36013 ft | 410 kts | 285° |
| 2026-05-07 18:28 | 46.79767 | 20.07970 | 36012 ft | 410 kts | 285° |
| 2026-05-07 18:29 | 46.81714 | 20.00141 | 36016 ft | 410 kts | 285° |
| 2026-05-07 18:29 | 46.83651 | 19.92320 | 36047 ft | 410 kts | 285° |
| 2026-05-07 18:30 | 46.85576 | 19.84543 | 36046 ft | 409 kts | 285° |
| 2026-05-07 18:30 | 46.87504 | 19.76731 | 36042 ft | 408 kts | 285° |
| 2026-05-07 18:31 | 46.89420 | 19.68915 | 36040 ft | 408 kts | 285° |
| 2026-05-07 18:31 | 46.91329 | 19.61106 | 36012 ft | 408 kts | 285° |
| 2026-05-07 18:32 | 46.93229 | 19.53293 | 36035 ft | 408 kts | 284° |
| 2026-05-07 18:32 | 46.95132 | 19.45476 | 36028 ft | 407 kts | 284° |
| 2026-05-07 18:33 | 46.97025 | 19.37675 | 36023 ft | 406 kts | 284° |
| 2026-05-07 18:33 | 46.98908 | 19.29865 | 36020 ft | 406 kts | 284° |
| 2026-05-07 18:34 | 47.00787 | 19.22053 | 36027 ft | 406 kts | 284° |
| 2026-05-07 18:34 | 47.02645 | 19.14296 | 36026 ft | 405 kts | 284° |
| 2026-05-07 18:35 | 47.04512 | 19.06497 | 36034 ft | 405 kts | 284° |
| 2026-05-07 18:35 | 47.06370 | 18.98689 | 36017 ft | 406 kts | 284° |
| 2026-05-07 18:36 | 47.08220 | 18.90844 | 36010 ft | 406 kts | 284° |
| 2026-05-07 18:36 | 47.10071 | 18.82990 | 36035 ft | 407 kts | 283° |
| 2026-05-07 18:37 | 47.11920 | 18.75139 | 36029 ft | 407 kts | 283° |
| 2026-05-07 18:37 | 47.13748 | 18.67335 | 36025 ft | 407 kts | 283° |
| 2026-05-07 18:38 | 47.15593 | 18.59464 | 36017 ft | 407 kts | 283° |
| 2026-05-07 18:38 | 47.17431 | 18.51594 | 36014 ft | 407 kts | 283° |
| 2026-05-07 18:39 | 47.19256 | 18.43720 | 36040 ft | 407 kts | 283° |
| 2026-05-07 18:39 | 47.21074 | 18.35825 | 36022 ft | 407 kts | 283° |
| 2026-05-07 18:40 | 47.22892 | 18.27916 | 36010 ft | 408 kts | 283° |
| 2026-05-07 18:40 | 47.24699 | 18.20060 | 36002 ft | 408 kts | 283° |
| 2026-05-07 18:41 | 47.26524 | 18.12089 | 36008 ft | 408 kts | 283° |
| 2026-05-07 18:41 | 47.28308 | 18.04225 | 36035 ft | 408 kts | 283° |
| 2026-05-07 18:42 | 47.30105 | 17.96298 | 36030 ft | 407 kts | 283° |
| 2026-05-07 18:42 | 47.31899 | 17.88381 | 36023 ft | 407 kts | 283° |
| 2026-05-07 18:43 | 47.33683 | 17.80465 | 36008 ft | 407 kts | 283° |
| 2026-05-07 18:43 | 47.35464 | 17.72552 | 36006 ft | 406 kts | 283° |
| 2026-05-07 18:44 | 47.37235 | 17.64631 | 36015 ft | 407 kts | 282° |
| 2026-05-07 18:44 | 47.39002 | 17.56694 | 35999 ft | 407 kts | 282° |
| 2026-05-07 18:45 | 47.40764 | 17.48750 | 35992 ft | 407 kts | 282° |
| 2026-05-07 18:45 | 47.42224 | 17.42158 | 35990 ft | 407 kts | 282° |
| 2026-05-07 18:46 | 47.44261 | 17.32907 | 35989 ft | 407 kts | 282° |
| 2026-05-07 18:46 | 47.45720 | 17.26235 | 36012 ft | 407 kts | 283° |
| 2026-05-07 18:47 | 47.47456 | 17.18275 | 36012 ft | 407 kts | 283° |
| 2026-05-07 18:47 | 47.49178 | 17.10354 | 36011 ft | 407 kts | 283° |
| 2026-05-07 18:48 | 47.50919 | 17.02335 | 36014 ft | 407 kts | 283° |
| 2026-05-07 18:48 | 47.52634 | 16.94406 | 36013 ft | 407 kts | 283° |
| 2026-05-07 18:49 | 47.54355 | 16.86412 | 36036 ft | 408 kts | 283° |
| 2026-05-07 18:49 | 47.56061 | 16.78411 | 36027 ft | 408 kts | 283° |
| 2026-05-07 18:50 | 47.57886 | 16.70441 | 36023 ft | 410 kts | 286° |
| 2026-05-07 18:50 | 47.60081 | 16.62615 | 36031 ft | 412 kts | 288° |
| 2026-05-07 18:51 | 47.62322 | 16.54819 | 36023 ft | 411 kts | 288° |
| 2026-05-07 18:51 | 47.64485 | 16.46962 | 36033 ft | 411 kts | 287° |
| 2026-05-07 18:52 | 47.66598 | 16.39075 | 36037 ft | 411 kts | 287° |
| 2026-05-07 18:52 | 47.68702 | 16.31174 | 36044 ft | 412 kts | 287° |
| 2026-05-07 18:53 | 47.70825 | 16.23275 | 36044 ft | 412 kts | 287° |
| 2026-05-07 18:53 | 47.72937 | 16.15383 | 36068 ft | 411 kts | 287° |
| 2026-05-07 18:54 | 47.75042 | 16.07475 | 36061 ft | 411 kts | 287° |
| 2026-05-07 18:54 | 47.77142 | 15.99572 | 36055 ft | 411 kts | 287° |
| 2026-05-07 18:55 | 47.79232 | 15.91660 | 36048 ft | 411 kts | 287° |
| 2026-05-07 18:55 | 47.81320 | 15.83743 | 36040 ft | 411 kts | 287° |
| 2026-05-07 18:56 | 47.83404 | 15.75820 | 36056 ft | 411 kts | 287° |
| 2026-05-07 18:56 | 47.85471 | 15.67926 | 36037 ft | 412 kts | 287° |
| 2026-05-07 18:57 | 47.87549 | 15.59964 | 36035 ft | 412 kts | 287° |
| 2026-05-07 18:57 | 47.89623 | 15.51981 | 36043 ft | 413 kts | 287° |
| 2026-05-07 18:58 | 47.91692 | 15.43997 | 36047 ft | 413 kts | 287° |
| 2026-05-07 18:58 | 47.93761 | 15.36001 | 36057 ft | 413 kts | 287° |
| 2026-05-07 18:59 | 47.95825 | 15.27991 | 36053 ft | 414 kts | 287° |
| 2026-05-07 18:59 | 47.97878 | 15.19966 | 36056 ft | 414 kts | 287° |
| 2026-05-07 19:00 | 47.99926 | 15.11934 | 36055 ft | 414 kts | 287° |
| 2026-05-07 19:00 | 48.01963 | 15.03900 | 36063 ft | 414 kts | 287° |
| 2026-05-07 19:01 | 48.04007 | 14.95851 | 36078 ft | 414 kts | 287° |